Time;durP1;ratioP1;P1;durP2;ratioP2;P2;SDS_P1;SDS_P2;PMS_P1;PMS_P2;Temp;Humidity;BMP_temperature;BMP_pressure;BME280_temperature;BME280_humidity;BME280_pressure;Samples;Min_cycle;Max_cycle;Signal;HPM_P1;HPM_P2
2023/05/27 00:01:37;;;;;;;11.80;4.40;;;16.00;50.20;;;18.89;37.49;98335.00;5030075;28;20053;-37
2023/05/27 00:04:05;;;;;;;7.03;3.97;;;15.90;50.60;;;18.85;37.59;98338.31;5031434;28;20049;-37
2023/05/27 00:06:33;;;;;;;8.30;4.60;;;15.80;50.70;;;18.80;37.63;98338.88;5031283;28;20127;-37
2023/05/27 00:09:01;;;;;;;9.95;4.40;;;15.90;50.70;;;18.78;37.53;98332.81;5031314;28;20051;-37
2023/05/27 00:11:28;;;;;;;9.68;3.95;;;15.80;50.70;;;18.78;37.53;98334.69;5030828;28;20041;-37
2023/05/27 00:13:56;;;;;;;8.57;4.20;;;15.90;50.40;;;18.73;37.61;98342.53;5031212;28;20052;-37
2023/05/27 00:16:24;;;;;;;7.30;4.10;;;15.70;50.70;;;18.64;37.68;98348.06;5031297;28;20433;-38
2023/05/27 00:18:52;;;;;;;7.38;4.05;;;15.70;50.80;;;18.60;37.71;98346.81;5029869;28;20061;-37
2023/05/27 00:21:20;;;;;;;6.68;3.78;;;15.60;50.90;;;18.58;37.74;98348.88;5029786;28;20064;-38
2023/05/27 00:23:51;;;;;;;6.90;4.10;;;15.60;50.80;;;18.57;37.69;98338.25;5031238;28;20049;-37
2023/05/27 00:26:19;;;;;;;8.35;3.88;;;15.50;50.80;;;18.53;37.82;98348.59;5029938;28;20053;-37
2023/05/27 00:28:50;;;;;;;10.45;4.55;;;15.60;51.60;;;18.52;37.74;98343.44;5030803;28;20052;-37
2023/05/27 00:31:17;;;;;;;6.93;4.10;;;15.60;50.80;;;18.50;37.62;98341.75;5031063;28;20382;-37
2023/05/27 00:33:45;;;;;;;7.28;3.58;;;15.60;50.50;;;18.50;37.72;98341.75;5013301;28;20041;-37
2023/05/27 00:36:13;;;;;;;6.45;3.42;;;15.60;50.50;;;18.48;37.71;98337.59;5031087;28;20497;-37
2023/05/27 00:38:41;;;;;;;9.30;3.53;;;15.60;50.50;;;18.47;37.62;98344.81;5030066;28;20049;-37
2023/05/27 00:41:12;;;;;;;9.23;4.38;;;15.60;50.50;;;18.46;37.82;98340.47;5029238;28;20068;-37
2023/05/27 00:43:39;;;;;;;11.23;4.88;;;15.60;50.80;;;18.46;37.83;98342.34;5030211;28;20409;-38
2023/05/27 00:46:08;;;;;;;7.35;5.65;;;15.50;50.90;;;18.40;37.77;98335.03;5029959;28;20053;-37
2023/05/27 00:48:36;;;;;;;11.10;4.50;;;15.50;50.80;;;18.37;37.94;98332.72;5029729;28;20308;-37
2023/05/27 00:51:05;;;;;;;10.18;5.00;;;15.50;50.90;;;18.35;37.72;98330.22;5028972;28;20053;-37
2023/05/27 00:53:41;;;;;;;11.73;5.20;;;15.50;50.80;;;18.36;37.99;98326.50;5012718;28;20532;-37
2023/05/27 00:56:12;;;;;;;7.85;4.20;;;15.50;51.20;;;18.36;37.94;98328.34;5030330;28;20056;-37
2023/05/27 00:58:40;;;;;;;11.57;4.55;;;15.50;50.80;;;18.36;37.89;98321.13;5029798;28;20100;-37
2023/05/27 01:01:08;;;;;;;8.30;4.03;;;15.50;50.70;;;18.36;37.73;98325.66;5012987;28;20053;-37
2023/05/27 01:03:38;;;;;;;11.38;4.60;;;15.50;50.70;;;18.35;37.95;98329.38;5029092;28;20041;-37
2023/05/27 01:06:38;;;;;;;8.93;5.07;;;15.50;50.70;;;18.33;37.75;98334.97;5030198;28;20045;-37
2023/05/27 01:09:30;;;;;;;10.80;5.00;;;15.50;51.30;;;18.32;37.82;98336.00;5026568;28;20041;-37
2023/05/27 01:12:37;;;;;;;10.77;4.30;;;15.50;51.50;;;18.32;37.94;98324.38;5018004;28;20041;-37
2023/05/27 01:15:06;;;;;;;9.63;4.95;;;15.50;51.10;;;18.30;38.04;98328.13;5027363;28;20045;-37
2023/05/27 01:17:37;;;;;;;7.53;4.00;;;15.40;51.00;;;18.24;38.01;98319.94;5017622;28;20054;-37
2023/05/27 01:20:06;;;;;;;9.07;3.78;;;15.40;50.90;;;18.22;38.13;98320.16;5033266;28;20541;-37
2023/05/27 01:22:35;;;;;;;8.95;4.05;;;15.40;51.10;;;18.21;38.28;98317.66;5032767;28;20049;-38
2023/05/27 01:25:04;;;;;;;9.48;4.65;;;15.40;51.00;;;18.20;38.04;98315.97;5017108;28;20057;-37
2023/05/27 01:27:32;;;;;;;9.63;4.97;;;15.30;51.10;;;18.18;38.03;98302.69;5032867;28;20052;-37
2023/05/27 01:30:01;;;;;;;12.45;4.50;;;15.30;51.20;;;18.17;38.35;98314.50;5026655;28;20041;-38
2023/05/27 01:32:40;;;;;;;8.80;4.75;;;15.20;51.30;;;18.14;38.27;98306.81;5034009;28;20045;-37
2023/05/27 01:35:30;;;;;;;10.77;4.80;;;15.20;51.50;;;18.11;38.29;98312.59;5013872;28;20049;-37
2023/05/27 01:38:05;;;;;;;8.30;5.10;;;15.20;51.70;;;18.06;38.33;98313.16;5033156;28;20641;-37
2023/05/27 01:40:34;;;;;;;8.88;4.45;;;15.10;51.80;;;18.04;38.53;98311.69;5032443;28;20228;-37
2023/05/27 01:43:03;;;;;;;10.00;4.53;;;15.10;51.70;;;18.00;38.54;98308.56;5022438;28;20058;-37
2023/05/27 01:45:32;;;;;;;8.52;4.03;;;15.10;51.80;;;17.98;38.54;98305.22;5009332;28;20053;-38
2023/05/27 01:48:00;;;;;;;10.38;4.13;;;15.10;51.90;;;17.96;38.56;98296.50;5008445;28;20045;-37
2023/05/27 01:50:30;;;;;;;9.38;5.05;;;15.00;51.80;;;17.94;38.59;98295.03;5032812;28;20505;-37
2023/05/27 01:52:58;;;;;;;10.85;4.57;;;15.00;52.10;;;17.91;38.41;98293.53;5032074;28;20116;-37
2023/05/27 01:55:26;;;;;;;9.48;4.43;;;15.00;52.10;;;17.88;38.74;98293.94;5032659;28;20046;-37
2023/05/27 01:57:54;;;;;;;9.15;4.18;;;14.90;52.30;;;17.84;38.95;98289.97;5032126;28;20060;-37
2023/05/27 02:00:22;;;;;;;14.00;4.93;;;14.90;52.30;;;17.82;38.92;98297.38;5032279;28;20072;-37
2023/05/27 02:02:51;;;;;;;9.75;4.18;;;14.90;52.40;;;17.77;38.89;98287.16;5032663;28;20049;-37
2023/05/27 02:05:19;;;;;;;14.27;4.72;;;14.90;52.30;;;17.73;38.84;98296.66;5024485;28;20041;-38
2023/05/27 02:07:47;;;;;;;8.00;4.53;;;14.80;52.40;;;17.70;39.10;98288.97;5032055;28;20505;-37
2023/05/27 02:10:15;;;;;;;13.65;5.13;;;14.80;52.70;;;17.66;39.28;98285.81;5033428;28;20045;-37
2023/05/27 02:12:42;;;;;;;10.63;4.93;;;14.80;52.80;;;17.63;39.08;98283.50;5033827;28;20045;-38
2023/05/27 02:15:11;;;;;;;12.70;5.13;;;14.80;52.90;;;17.61;39.26;98290.09;5016104;28;20041;-37
2023/05/27 02:17:38;;;;;;;15.65;5.30;;;14.70;53.00;;;17.58;39.38;98279.69;5030872;28;20497;-37
2023/05/27 02:20:06;;;;;;;11.38;4.78;;;14.70;53.30;;;17.55;39.52;98278.25;5031889;28;20061;-37
2023/05/27 02:22:35;;;;;;;15.35;5.32;;;14.60;53.30;;;17.52;39.38;98282.16;5034136;28;20054;-37
2023/05/27 02:25:03;;;;;;;10.52;4.15;;;14.60;53.40;;;17.49;39.74;98285.22;5024114;28;20057;-37
2023/05/27 02:27:31;;;;;;;11.55;4.32;;;14.60;54.50;;;17.45;39.86;98280.41;5032968;28;20045;-37
2023/05/27 02:29:58;;;;;;;9.98;4.43;;;14.50;53.90;;;17.43;39.71;98280.59;5032226;28;20045;-37
2023/05/27 02:32:26;;;;;;;8.85;4.53;;;14.50;54.10;;;17.40;39.98;98289.03;5031636;28;20038;-37
2023/05/27 02:34:53;;;;;;;11.52;4.38;;;14.50;54.40;;;17.36;40.00;98276.97;5031507;28;20057;-37
2023/05/27 02:37:21;;;;;;;13.50;5.63;;;14.40;54.20;;;17.35;39.88;98278.03;5033022;28;20101;-39
2023/05/27 02:39:49;;;;;;;8.52;5.20;;;14.40;54.30;;;17.32;40.07;98276.53;5031883;28;20060;-39
2023/05/27 02:42:17;;;;;;;9.38;4.82;;;14.40;54.50;;;17.30;40.13;98277.75;5031275;28;20045;-39
2023/05/27 02:44:45;;;;;;;11.75;4.68;;;14.30;54.80;;;17.25;40.16;98272.09;5033040;28;20038;-39
2023/05/27 02:47:12;;;;;;;12.88;5.40;;;14.30;54.90;;;17.19;40.19;98281.72;5031122;28;20648;-39
2023/05/27 02:49:40;;;;;;;14.45;5.22;;;14.30;55.00;;;17.18;40.42;98280.09;5030355;28;20505;-39
2023/05/27 02:52:08;;;;;;;13.25;5.38;;;14.20;55.00;;;17.16;40.47;98275.88;5032504;28;20542;-39
2023/05/27 02:54:35;;;;;;;14.20;4.95;;;14.20;55.00;;;17.14;40.31;98281.47;5031139;28;20045;-39
2023/05/27 02:57:03;;;;;;;16.55;5.60;;;14.20;55.20;;;17.11;40.31;98288.06;5031337;28;20076;-39
2023/05/27 02:59:31;;;;;;;12.75;4.93;;;14.20;55.20;;;17.09;40.70;98294.66;5032772;28;20437;-39
2023/05/27 03:01:58;;;;;;;8.48;4.75;;;14.20;55.30;;;17.05;40.49;98283.44;5030617;28;20528;-39
2023/05/27 03:04:26;;;;;;;11.13;5.32;;;14.10;55.60;;;17.03;40.53;98282.78;5014363;28;20060;-39
2023/05/27 03:06:54;;;;;;;9.10;4.22;;;14.20;55.30;;;17.03;40.76;98273.88;5030962;28;20049;-39
2023/05/27 03:09:22;;;;;;;10.75;4.40;;;14.20;55.50;;;17.01;40.70;98278.63;5030652;28;20050;-39
2023/05/27 03:11:49;;;;;;;9.73;4.63;;;14.10;55.40;;;17.00;40.68;98275.09;5022607;28;20056;-38
2023/05/27 03:14:17;;;;;;;10.35;4.35;;;14.10;55.40;;;16.97;40.94;98280.84;5031278;28;20049;-38
2023/05/27 03:16:45;;;;;;;10.05;4.20;;;14.10;55.80;;;16.95;40.91;98284.75;5031881;28;20048;-38
2023/05/27 03:19:13;;;;;;;9.68;6.00;;;14.00;55.60;;;16.93;40.84;98277.69;5032094;28;20045;-38
2023/05/27 03:21:40;;;;;;;10.25;4.75;;;14.00;55.80;;;16.90;40.97;98277.22;5030166;28;20064;-38
2023/05/27 03:24:08;;;;;;;11.18;5.20;;;14.00;55.90;;;16.89;40.98;98286.31;5030952;28;20041;-38
2023/05/27 03:26:36;;;;;;;13.48;4.95;;;13.90;56.00;;;16.87;40.89;98288.38;5031829;28;20057;-38
2023/05/27 03:29:06;;;;;;;10.23;4.22;;;13.90;56.00;;;16.86;40.86;98284.81;5030400;28;20060;-38
2023/05/27 03:31:33;;;;;;;11.38;4.80;;;13.90;56.00;;;16.83;41.08;98282.53;5030104;28;20064;-38
2023/05/27 03:34:09;;;;;;;13.75;4.50;;;13.90;55.80;;;16.83;41.17;98276.31;5024475;28;20041;-40
2023/05/27 03:36:39;;;;;;;9.05;4.18;;;14.00;56.00;;;16.82;41.18;98280.00;5031171;28;20049;-38
2023/05/27 03:39:07;;;;;;;9.60;4.30;;;13.90;56.00;;;16.80;41.00;98277.47;5023198;28;20559;-38
2023/05/27 03:41:38;;;;;;;6.28;4.03;;;13.90;56.30;;;16.76;41.17;98283.41;5030829;28;20052;-38
2023/05/27 03:44:10;;;;;;;10.55;6.28;;;13.80;56.40;;;16.74;41.15;98291.66;5030323;28;20060;-38
2023/05/27 03:46:38;;;;;;;11.25;3.78;;;13.70;56.50;;;16.69;41.21;98283.31;5030118;28;20425;-38
2023/05/27 03:49:06;;;;;;;13.45;4.82;;;13.70;56.60;;;16.63;41.42;98287.56;5013681;28;20045;-38
2023/05/27 03:51:35;;;;;;;9.75;3.83;;;13.60;56.90;;;16.60;41.41;98284.44;5029994;28;20532;-38
2023/05/27 03:54:03;;;;;;;12.15;4.50;;;13.60;56.90;;;16.58;41.66;98286.47;5014398;28;20235;-38
2023/05/27 03:56:31;;;;;;;14.02;4.93;;;13.60;56.90;;;16.56;41.39;98283.97;5031433;28;20044;-38
2023/05/27 03:58:59;;;;;;;8.23;4.35;;;13.60;57.10;;;16.54;41.62;98281.44;5031153;28;20281;-38
2023/05/27 04:01:29;;;;;;;10.02;4.35;;;13.50;57.20;;;16.54;41.85;98286.81;5029707;28;20048;-38
2023/05/27 04:03:58;;;;;;;8.93;4.35;;;13.60;57.10;;;16.54;41.60;98281.44;5030711;28;20053;-38
2023/05/27 04:06:26;;;;;;;13.32;4.75;;;13.60;57.20;;;16.52;41.74;98282.66;5030020;28;20425;-38
2023/05/27 04:08:55;;;;;;;10.68;4.40;;;13.60;57.10;;;16.51;41.82;98281.81;5029549;28;20060;-38
2023/05/27 04:11:23;;;;;;;9.55;4.97;;;13.60;57.00;;;16.50;41.73;98282.84;5031146;28;20037;-38
2023/05/27 04:13:51;;;;;;;11.27;4.80;;;13.60;57.30;;;16.46;42.03;98278.00;5030218;28;20516;-38
2023/05/27 04:16:18;;;;;;;7.88;3.97;;;13.50;57.40;;;16.44;41.88;98278.19;5031202;28;20049;-38
2023/05/27 04:18:48;;;;;;;8.90;4.47;;;13.50;57.50;;;16.46;42.03;98280.69;5029240;28;20050;-38
2023/05/27 04:21:16;;;;;;;9.43;3.55;;;13.60;57.30;;;16.48;41.96;98284.88;5030980;28;20046;-38
2023/05/27 04:23:44;;;;;;;12.30;4.57;;;13.60;57.10;;;16.49;41.70;98283.84;5029616;28;20045;-38
2023/05/27 04:26:14;;;;;;;9.25;3.63;;;13.70;56.90;;;16.50;41.79;98279.31;5029796;28;20045;-42
2023/05/27 04:28:48;;;;;;;9.60;3.83;;;13.70;56.80;;;16.50;41.78;98282.00;5029375;28;20485;-38
2023/05/27 04:31:16;;;;;;;5.95;3.25;;;13.70;56.70;;;16.52;41.84;98290.72;5029793;28;20042;-38
2023/05/27 04:33:53;;;;;;;9.20;3.72;;;13.70;56.60;;;16.52;42.12;98286.19;5030140;28;20050;-38
2023/05/27 04:36:25;;;;;;;12.27;5.00;;;13.80;56.80;;;16.57;41.93;98287.47;5029295;28;20048;-38
2023/05/27 04:39:04;;;;;;;8.43;3.58;;;13.80;56.60;;;16.61;41.75;98281.53;5029280;28;20420;-38
2023/05/27 04:41:34;;;;;;;4.93;3.33;;;13.80;56.80;;;16.64;41.84;98288.41;5028405;28;20050;-38
2023/05/27 04:44:12;;;;;;;10.77;3.85;;;13.80;56.80;;;16.65;41.97;98282.88;5020783;28;20474;-38
2023/05/27 04:46:44;;;;;;;10.15;4.60;;;13.80;56.90;;;16.67;42.13;98280.81;5029749;28;20120;-38
2023/05/27 04:49:12;;;;;;;12.05;4.80;;;13.80;57.10;;;16.69;41.80;98278.78;5030611;28;20049;-38
2023/05/27 04:51:41;;;;;;;9.40;3.95;;;13.90;57.00;;;16.70;42.04;98282.31;5029326;28;20049;-38
2023/05/27 04:54:08;;;;;;;8.13;3.83;;;13.80;57.20;;;16.73;42.27;98276.56;5030688;28;20417;-38
2023/05/27 04:56:36;;;;;;;12.02;4.63;;;13.90;57.30;;;16.77;42.13;98280.56;5030115;28;20304;-38
2023/05/27 04:59:05;;;;;;;11.27;4.43;;;14.00;57.20;;;16.80;42.08;98279.34;5029526;28;20056;-38
2023/05/27 05:01:59;;;;;;;8.13;3.58;;;14.00;56.90;;;16.81;41.98;98273.78;5028877;28;20056;-38
2023/05/27 05:04:33;;;;;;;9.88;3.67;;;14.10;56.50;;;16.81;41.85;98271.09;5029585;28;20053;-38
2023/05/27 05:07:03;;;;;;;10.88;4.72;;;14.10;56.60;;;16.81;41.83;98278.28;5028857;28;20432;-38
2023/05/27 05:09:33;;;;;;;11.57;3.72;;;14.10;56.50;;;16.78;42.00;98281.38;5029277;28;20056;-38
2023/05/27 05:12:11;;;;;;;8.07;4.22;;;14.10;56.50;;;16.82;41.75;98286.22;5014535;28;20045;-38
2023/05/27 05:14:42;;;;;;;11.65;3.95;;;14.10;56.70;;;16.85;41.83;98288.56;5021327;28;20041;-38
2023/05/27 05:17:10;;;;;;;16.05;5.68;;;14.10;56.40;;;16.88;41.78;98277.41;5028753;28;20125;-38
2023/05/27 05:19:38;;;;;;;9.68;3.92;;;14.20;56.20;;;16.89;41.88;98289.84;5013432;28;20125;-39
2023/05/27 05:22:07;;;;;;;6.30;4.15;;;14.30;56.10;;;16.94;41.92;98283.91;5013358;28;20045;-38
2023/05/27 05:24:35;;;;;;;11.73;4.25;;;14.30;56.20;;;16.98;41.57;98289.75;5028668;28;20523;-38
2023/05/27 05:27:03;;;;;;;10.13;4.07;;;14.40;55.80;;;16.96;41.58;98292.59;5028972;28;20061;-38
2023/05/27 05:29:31;;;;;;;7.72;3.90;;;14.40;55.70;;;16.95;41.85;98292.81;5029856;28;20048;-39
2023/05/27 05:31:59;;;;;;;10.05;4.43;;;14.40;55.60;;;16.95;41.89;98296.34;5029328;28;20050;-38
2023/05/27 05:34:28;;;;;;;10.18;4.03;;;14.40;55.50;;;16.97;41.92;98296.16;5029039;28;20413;-38
2023/05/27 05:36:56;;;;;;;10.63;3.53;;;14.50;55.50;;;17.01;41.83;98289.38;5028733;28;20041;-38
2023/05/27 05:39:24;;;;;;;8.68;4.07;;;14.50;55.50;;;17.04;41.52;98287.16;5029276;28;20050;-38
2023/05/27 05:41:55;;;;;;;9.77;4.05;;;14.40;55.50;;;17.09;41.38;98286.59;5029230;28;20046;-38
2023/05/27 05:44:24;;;;;;;9.32;5.00;;;14.50;55.40;;;17.03;41.66;98298.91;5028560;28;20140;-39
2023/05/27 05:46:53;;;;;;;13.38;4.22;;;14.50;55.40;;;17.01;41.42;98286.69;5028568;28;20409;-38
2023/05/27 05:49:23;;;;;;;9.18;3.88;;;14.50;55.20;;;17.00;41.85;98285.88;5028153;28;20041;-38
2023/05/27 05:51:50;;;;;;;8.45;3.55;;;14.50;55.40;;;17.06;41.73;98287.81;5030366;28;20045;-38
2023/05/27 05:54:18;;;;;;;11.35;5.40;;;14.60;55.20;;;17.06;41.73;98293.19;5014867;28;20145;-38
2023/05/27 05:56:53;;;;;;;8.02;3.55;;;14.60;55.20;;;17.16;41.60;98284.81;5031845;28;20096;-38
2023/05/27 05:59:20;;;;;;;11.55;3.63;;;14.60;55.20;;;17.20;41.62;98287.97;5032467;28;20049;-38
2023/05/27 06:01:48;;;;;;;9.32;3.97;;;14.70;55.20;;;17.22;41.63;98284.06;5032758;28;20053;-38
2023/05/27 06:04:17;;;;;;;14.20;5.20;;;14.70;55.10;;;17.25;41.64;98283.69;5031607;28;20049;-38
2023/05/27 06:06:46;;;;;;;8.60;4.43;;;14.70;55.20;;;17.30;41.45;98283.13;5031922;28;20390;-38
2023/05/27 06:09:25;;;;;;;10.45;4.10;;;14.80;55.10;;;17.38;41.52;98282.19;5032555;28;20054;-38
2023/05/27 06:11:55;;;;;;;12.18;4.53;;;14.80;55.30;;;17.42;41.51;98289.69;5032062;28;20042;-38
2023/05/27 06:14:23;;;;;;;10.40;3.85;;;14.80;55.30;;;17.50;41.38;98286.03;5031845;28;20052;-38
2023/05/27 06:16:54;;;;;;;7.40;3.92;;;14.90;55.40;;;17.54;41.17;98287.31;5031443;28;20053;-38
2023/05/27 06:19:22;;;;;;;13.00;4.80;;;15.00;54.80;;;17.54;41.14;98287.31;5033271;28;20041;-38
2023/05/27 06:21:49;;;;;;;10.95;3.40;;;15.00;54.70;;;17.60;41.09;98285.72;5032824;28;20030;-38
2023/05/27 06:24:49;;;;;;;7.82;4.43;;;15.10;54.60;;;17.69;40.98;98280.03;5031713;28;20076;-38
2023/05/27 06:27:24;;;;;;;8.27;3.78;;;15.20;54.60;;;17.76;41.03;98287.34;5025286;28;20041;-38
2023/05/27 06:29:52;;;;;;;8.95;3.97;;;15.10;54.40;;;17.80;40.99;98277.88;5033614;28;20068;-38
2023/05/27 06:32:30;;;;;;;8.18;3.72;;;15.20;54.30;;;17.87;40.84;98282.34;5031449;28;20049;-38
2023/05/27 06:34:58;;;;;;;9.25;3.70;;;15.30;54.20;;;17.90;40.75;98284.63;5031881;28;20440;-38
2023/05/27 06:37:25;;;;;;;10.63;4.13;;;15.40;54.20;;;17.93;40.58;98277.19;5031565;28;20034;-38
2023/05/27 06:39:53;;;;;;;15.98;5.25;;;15.40;53.90;;;17.92;40.59;98281.75;5023892;28;20094;-38
2023/05/27 06:42:22;;;;;;;8.98;3.35;;;15.40;53.80;;;17.96;40.70;98282.19;5031470;28;20417;-38
2023/05/27 06:45:09;;;;;;;8.95;4.28;;;15.50;53.80;;;18.04;40.54;98282.88;5033049;28;20064;-38
2023/05/27 06:47:38;;;;;;;9.25;4.63;;;15.40;53.80;;;18.11;40.62;98280.28;5030929;28;20041;-38
2023/05/27 06:50:06;;;;;;;13.43;4.50;;;15.50;53.90;;;18.18;40.59;98277.63;5031949;28;20042;-38
2023/05/27 06:52:34;;;;;;;13.90;5.72;;;15.60;53.90;;;18.23;40.67;98278.69;5031143;28;20045;-38
2023/05/27 06:55:21;;;;;;;6.97;3.60;;;15.70;54.00;;;18.29;40.36;98274.41;5031923;28;20050;-38
2023/05/27 06:58:19;;;;;;;15.02;4.28;;;15.70;53.50;;;18.32;40.13;98283.94;5019762;28;20398;-39
2023/05/27 07:00:59;;;;;;;10.30;3.95;;;15.80;53.10;;;18.31;40.30;98280.44;5031474;28;20053;-38
2023/05/27 07:03:34;;;;;;;6.90;3.80;;;15.80;53.30;;;18.40;40.33;98275.75;5030997;28;20050;-38
2023/05/27 07:06:05;;;;;;;12.57;5.50;;;15.90;53.60;;;18.40;40.30;98276.56;5031271;28;20059;-38
2023/05/27 07:08:40;;;;;;;11.93;4.40;;;15.90;53.40;;;18.40;40.54;98283.81;5032669;28;20049;-38
2023/05/27 07:11:18;;;;;;;9.70;3.83;;;15.80;53.80;;;18.46;40.52;98291.94;5030575;28;20053;-39
2023/05/27 07:13:46;;;;;;;10.18;4.13;;;15.90;53.90;;;18.55;40.34;98289.91;5015144;28;20045;-39
2023/05/27 07:16:16;;;;;;;7.78;3.83;;;15.90;53.80;;;18.62;40.11;98288.13;5030580;28;20045;-38
2023/05/27 07:18:43;;;;;;;10.82;3.70;;;16.10;53.40;;;18.65;40.05;98290.44;5032392;28;20417;-38
2023/05/27 07:21:12;;;;;;;9.70;4.05;;;16.10;53.00;;;18.68;40.04;98281.09;5030660;28;20041;-38
2023/05/27 07:23:41;;;;;;;13.43;3.95;;;16.20;52.90;;;18.76;40.19;98280.94;5030625;28;20041;-38
2023/05/27 07:26:27;;;;;;;13.20;4.28;;;16.20;53.20;;;18.85;39.87;98282.47;5023453;28;20052;-39
2023/05/27 07:28:58;;;;;;;8.30;3.78;;;16.30;52.90;;;18.89;39.77;98281.06;5031111;28;20052;-38
2023/05/27 07:31:35;;;;;;;8.43;4.28;;;16.40;52.30;;;18.95;39.72;98289.38;5015264;28;20041;-38
2023/05/27 07:34:10;;;;;;;7.82;4.00;;;16.40;52.50;;;19.01;39.93;98285.88;5030520;28;20052;-38
2023/05/27 07:36:38;;;;;;;6.95;4.65;;;16.50;52.70;;;19.09;39.66;98283.03;5031193;28;20417;-38
2023/05/27 07:39:06;;;;;;;15.02;3.92;;;16.60;52.50;;;19.18;39.67;98278.31;5030067;28;20052;-38
2023/05/27 07:41:33;;;;;;;8.35;4.85;;;16.60;52.50;;;19.20;39.53;98273.53;5029834;28;20421;-37
2023/05/27 07:44:03;;;;;;;9.85;4.07;;;16.70;52.20;;;19.21;39.48;98277.88;5026065;28;20049;-37
2023/05/27 07:46:32;;;;;;;11.77;4.00;;;16.70;52.20;;;19.26;39.39;98276.25;5030952;28;20041;-38
2023/05/27 07:49:00;;;;;;;12.90;3.63;;;16.80;52.00;;;19.34;39.21;98274.41;5030093;28;20049;-38
2023/05/27 07:51:28;;;;;;;11.57;4.03;;;16.80;52.30;;;19.40;39.24;98276.28;5029681;28;20056;-38
2023/05/27 07:53:57;;;;;;;11.15;4.40;;;16.90;51.80;;;19.44;39.34;98272.16;5031456;28;20034;-38
2023/05/27 07:56:26;;;;;;;9.73;4.53;;;17.00;51.60;;;19.45;39.24;98269.25;5030799;28;20037;-39
2023/05/27 07:58:54;;;;;;;10.13;3.40;;;17.00;51.50;;;19.50;39.25;98265.94;5030732;28;20072;-38
2023/05/27 08:01:22;;;;;;;6.70;3.90;;;17.10;51.40;;;19.58;38.94;98262.22;5030136;28;20042;-38
2023/05/27 08:03:53;;;;;;;15.07;6.40;;;17.10;51.00;;;19.61;38.92;98268.03;5030802;28;20041;-38
2023/05/27 08:06:45;;;;;;;9.65;3.38;;;17.20;51.20;;;19.70;38.87;98266.00;5025189;28;20437;-38
2023/05/27 08:09:32;;;;;;;16.52;4.38;;;17.20;51.20;;;19.77;39.10;98263.34;5009205;28;20053;-38
2023/05/27 08:12:06;;;;;;;6.03;3.60;;;17.20;51.30;;;19.79;38.64;98256.72;5029665;28;20046;-38
2023/05/27 08:14:45;;;;;;;8.15;3.78;;;17.30;51.00;;;19.81;38.77;98260.03;5030147;28;20056;-39
2023/05/27 08:17:36;;;;;;;12.07;4.63;;;17.30;51.20;;;19.86;38.62;98257.53;5028118;28;20053;-38
2023/05/27 08:20:16;;;;;;;10.48;4.10;;;17.30;50.20;;;19.79;38.71;98254.00;5030894;28;20049;-38
2023/05/27 08:23:10;;;;;;;;;;;17.20;51.20;;;19.91;38.54;98246.13;5025843;28;20052;-38
2023/05/27 08:25:52;;;;;;;10.82;4.30;;;17.20;51.00;;;19.94;38.85;98245.69;5030491;28;19925;-39
2023/05/27 08:28:42;;;;;;;11.50;4.22;;;17.30;51.40;;;20.00;38.62;98246.75;5025578;28;20045;-39
2023/05/27 08:31:25;;;;;;;9.57;4.40;;;17.50;51.10;;;20.05;38.40;98247.78;5029617;28;20041;-39
2023/05/27 08:33:56;;;;;;;8.18;4.50;;;17.50;50.80;;;20.14;38.44;98247.56;5013784;28;20042;-39
2023/05/27 08:36:24;;;;;;;13.05;5.28;;;17.70;50.70;;;20.21;38.40;98241.13;5022874;28;20461;-39
2023/05/27 08:38:52;;;;;;;9.90;4.88;;;17.70;50.40;;;20.30;38.65;98233.66;5029361;28;20048;-39
2023/05/27 08:41:39;;;;;;;8.52;3.78;;;17.80;50.50;;;20.38;38.53;98235.31;5029266;28;20046;-39
2023/05/27 08:44:08;;;;;;;8.80;4.97;;;17.90;50.50;;;20.43;38.40;98230.06;5029786;28;20416;-39
2023/05/27 08:46:55;;;;;;;8.80;4.57;;;18.00;50.30;;;20.50;37.97;98230.09;5016414;28;20056;-39
2023/05/27 08:49:23;;;;;;;10.05;4.47;;;18.10;49.80;;;20.49;37.80;98231.97;5029622;28;20045;-39
2023/05/27 08:52:15;;;;;;;11.93;4.47;;;18.10;49.70;;;20.56;38.33;98232.75;5029294;28;20042;-39
2023/05/27 08:54:58;;;;;;;10.43;4.28;;;18.20;50.00;;;20.65;38.14;98226.13;5027445;28;20493;-48
2023/05/27 08:57:30;;;;;;;10.27;4.20;;;18.20;50.20;;;20.70;37.68;98230.88;5005086;28;20045;-48
2023/05/27 08:59:58;;;;;;;16.35;5.88;;;18.30;48.90;;;20.71;37.47;98232.56;5031026;28;20037;-51
2023/05/27 09:02:28;;;;;;;8.55;4.97;;;18.40;49.10;;;20.76;37.64;98232.78;5029502;28;20402;-49
2023/05/27 09:04:55;;;;;;;9.40;5.25;;;18.40;48.60;;;20.75;37.36;98220.28;5029939;28;20052;-48
2023/05/27 09:07:23;;;;;;;9.95;4.95;;;18.40;48.50;;;20.80;37.70;98225.03;5030384;28;20041;-50
2023/05/27 09:09:58;;;;;;;11.45;4.15;;;18.50;48.80;;;20.87;37.12;98228.56;5030991;28;20041;-50
2023/05/27 09:12:27;;;;;;;7.10;4.22;;;18.60;47.90;;;20.93;37.21;98229.59;5021086;28;20050;-53
2023/05/27 09:14:54;;;;;;;9.63;4.32;;;18.60;48.20;;;20.97;37.25;98223.50;5031224;28;20042;-51
2023/05/27 09:17:25;;;;;;;8.30;5.35;;;18.70;48.10;;;21.03;36.86;98214.56;5030820;28;20037;-47
2023/05/27 09:19:54;;;;;;;11.13;4.38;;;18.70;47.80;;;21.12;37.30;98217.84;5031057;28;20038;-51
2023/05/27 09:22:30;;;;;;;10.95;5.10;;;18.80;48.20;;;21.24;36.70;98207.16;5030668;28;20497;-49
2023/05/27 09:24:58;;;;;;;7.90;5.10;;;18.80;47.40;;;21.26;37.15;98210.47;5030854;28;20049;-50
2023/05/27 09:27:30;;;;;;;7.18;4.78;;;18.90;48.20;;;21.32;37.08;98217.75;5031709;28;20041;-51
2023/05/27 09:30:07;;;;;;;13.83;5.27;;;19.00;48.20;;;21.39;36.66;98213.13;5034969;28;20073;-52
2023/05/27 09:32:35;;;;;;;7.40;4.60;;;19.00;47.00;;;21.42;36.83;98198.31;5018561;28;20788;-50
2023/05/27 09:35:07;;;;;;;11.75;5.20;;;19.00;47.40;;;21.41;36.71;98202.91;5034764;28;20417;-48
2023/05/27 09:37:35;;;;;;;7.38;4.47;;;19.10;47.50;;;21.48;36.59;98200.19;5034464;28;20037;-51
2023/05/27 09:40:12;;;;;;;10.35;5.50;;;19.10;47.80;;;21.56;36.63;98199.13;5034760;28;20064;-50
2023/05/27 09:42:45;;;;;;;10.68;4.80;;;19.20;47.30;;;21.65;36.31;98197.78;5017372;28;20048;-48
2023/05/27 09:45:20;;;;;;;10.50;4.90;;;19.30;47.20;;;21.76;36.54;98201.69;5034424;28;20053;-48
2023/05/27 09:47:51;;;;;;;7.95;4.80;;;19.30;47.10;;;21.76;36.28;98202.50;5034442;28;20041;-50
2023/05/27 09:50:20;;;;;;;11.63;5.25;;;19.40;47.40;;;21.81;36.25;98191.84;5034121;28;20049;-47
2023/05/27 09:52:49;;;;;;;8.65;4.15;;;19.50;47.10;;;21.88;36.68;98199.91;5034534;28;20045;-47
2023/05/27 09:55:33;;;;;;;10.02;4.65;;;19.50;47.30;;;21.97;36.15;98204.00;5033234;28;20034;-48
2023/05/27 09:58:02;;;;;;;9.95;4.70;;;19.60;47.00;;;22.05;36.22;98189.34;5034148;28;20056;-48
2023/05/27 10:00:31;;;;;;;8.60;4.95;;;19.70;47.00;;;22.02;35.52;98195.22;5026065;28;20037;-50
2023/05/27 10:03:02;;;;;;;8.35;5.00;;;19.70;46.00;;;22.09;35.81;98195.16;5033197;28;20041;-47
2023/05/27 10:05:30;;;;;;;12.13;5.00;;;19.70;46.50;;;22.15;36.27;98180.72;5033985;28;20045;-47
2023/05/27 10:07:58;;;;;;;11.00;4.63;;;19.80;46.70;;;22.22;36.33;98185.03;5033817;28;20140;-47
2023/05/27 10:10:46;;;;;;;10.50;4.78;;;19.90;47.20;;;22.36;36.05;98183.03;5027791;28;20194;-47
2023/05/27 10:13:16;;;;;;;9.30;4.65;;;20.00;46.90;;;22.45;35.83;98182.75;5032650;28;20421;-49
2023/05/27 10:15:50;;;;;;;7.43;4.93;;;20.10;46.80;;;22.52;35.84;98173.47;5032892;28;20045;-48
2023/05/27 10:18:29;;;;;;;9.43;5.53;;;20.20;45.90;;;22.57;35.31;98176.34;5033363;28;20052;-47
2023/05/27 10:20:58;;;;;;;9.60;5.03;;;20.30;45.60;;;22.65;35.37;98179.84;5033617;28;20052;-48
2023/05/27 10:23:33;;;;;;;8.07;5.07;;;20.30;45.90;;;22.70;35.91;98164.53;5033623;28;20048;-47
2023/05/27 10:26:06;;;;;;;11.98;6.40;;;20.40;46.00;;;22.80;35.33;98174.84;5032583;28;20470;-49
2023/05/27 10:28:37;;;;;;;10.77;5.28;;;20.50;45.60;;;22.87;35.09;98169.34;5026018;28;20041;-48
2023/05/27 10:31:10;;;;;;;9.13;4.63;;;20.50;45.40;;;22.94;35.12;98168.19;5033062;28;20046;-51
2023/05/27 10:33:47;;;;;;;6.95;4.97;;;20.60;44.90;;;23.02;35.25;98169.78;5033542;28;20033;-46